Singapore Changi Airport

METAR WSSS TAF WSSS
24 °C
°C
-
°C
16m
年龄
11:45:50
LT
10:45
UTC
0 ft

1.000

2.000

3.000

4.000

5.000

FEW 1.200
FEW 1.600
FEW 1.800
SCT 4.000
VFR
<?= Yii::t('app', 'Wind direction') ?> <?= Yii::t('app', 'of'); ?>
190°
19:19
日落
89%
湿度
风切变
关闭/下雪
RWY可视范围
RWY状况
垂直能见度
最低能见度
CAVOK
趋势
纠正
特别报告
1007 hPa
QNH
METAR WSSS 021030Z 19004KT 170V240 9999 FEW012 FEW016TCU FEW018CB SCT040 24/22 Q1007 NOSIG
疏云,零星散落的云朵
1 kt
1 kt
18:00
VFR
9 kt
19:00
VFR
9 kt
20:00
VFR
9 kt
21:00
VFR
9 kt
22:00
VFR
9 kt
23:00
VFR
9 kt
00:00
VFR
9 kt
10 km+
能见度
天花板
4 kt
metar-taf.com/WSSS

Metar-Taf.com

视觉解码器

我们和第三方通过cookies跟踪您在我们网站上的互联网行为。如果你继续,我们认为你同意我们的饼干政策